9分钟前
罗盘
风向 的 风向 的 风向 到 风向 200° Ameland Airport Ballum 8/26
风: 9 千吨, 3 beaufort
0 0 0.17778093859221 500 0.32299085377319 1.500 0.47075341907445 3.000 0.62138884920159 5.000 0.8022287624727 8.000 0.90566318494517 10.000
BKN 3.400 ft
BKN 4.000 ft
OVC 6.300 ft
METAR EHLW 161725Z AUTO 20009KT 170V230 9999 BKN034 BKN040 OVC063 12/08 Q1019 BLU

METAR定义 | 嵌入

24小时趋势

航班类别VFRLIFR
温度14 °C7 °C
风速8 千吨0 千吨
能见度10 公里+0 米

更多历史数据

下载我们的安卓应用程序

从你的主屏幕上轻松地访问你的航空天气。
只需一次付费,您就可以获得无广告的体验。

您会帮助我们保持Metar-Taf.com正常运行吗?
您的贡献有助于网站的进一步开发并支付费用。

没有更多广告

您是捐款5美元还是更多?然后,我们将永远不会再向您展示广告,这是我们永恒的感谢!
捐赠前先登录

METAR Ameland Airport Ballum

Ameland Airport Ballum是Ameland,荷兰中的小机场。 机场有{a,plural,=1{一条跑道} other{#跑道}}: 8/26

Ameland Airport Ballum最近未发布观察结果。相反,我们向您显示25 km的报告Leeuwarden Air Base。 该报告是针对2021年10月16日 19:25, 当地时间进行的。

机场观察

风来自南南西 (200°)方向,速度为9 千吨。 风向在南 (170°)和南西 (230°)之间变化。

可见度为10 公里 或者更多。

有碎云在3.400 ft的高度, 碎云在4.000 ft的高度 和 乌云密布在6.300 ft的高度。 破损或更高的上限为3.400 ft。

温度和风寒是12 °C。 露点为8 °C,相对湿度为77%。 海平面上的气压为1019 压力 (QNH)。

白天

今天,太阳从08:06升起,在18:38降落。 这适用于Ameland Airport Ballum,世界夏令时可能有所不同。 当地时间与世界标准时间之间的时差为+2 小时。 夏令时目前正在进行中。

公司介绍

在这个机场,你可以找到跳伞中心。 这个机场上的公司有Vliegles.nl, Rondvluchten Ameland 和 Paracentrum Ameland。

体会

你可以在这个机场与经验丰富的教练进行双人跳伞。 这些跳伞包括自由落体。 在Ameland Airport Ballum进行跳伞的费用是€ 209。 在这里预订Skydive Ameland

您是否要在网站上Ameland Airport Ballum飞行的天气? 阅读更多   自由!